createdAt,value
2018-03-09T00:00:45.521Z,1.50
2018-03-09T00:03:12.739Z,1.20
2018-03-09T00:05:39.271Z,1.40
2018-03-09T00:08:05.894Z,1.73
2018-03-09T00:10:32.372Z,0.93
2018-03-09T00:12:59.702Z,1.40
2018-03-09T00:15:26.175Z,1.60
2018-03-09T00:17:52.727Z,1.60
2018-03-09T00:20:19.208Z,1.27
2018-03-09T00:22:45.794Z,1.50
2018-03-09T00:25:12.255Z,1.40
2018-03-09T00:27:38.791Z,1.45
2018-03-09T00:30:05.261Z,1.60
2018-03-09T00:32:32.463Z,1.40
2018-03-09T00:34:59.209Z,2.05
2018-03-09T00:37:25.635Z,1.50
2018-03-09T00:39:52.208Z,1.40
2018-03-09T00:42:18.679Z,1.50
2018-03-09T00:44:45.145Z,1.77
2018-03-09T00:47:11.647Z,1.67
2018-03-09T00:49:38.119Z,1.75
2018-03-09T00:52:04.763Z,1.95
2018-03-09T00:54:31.160Z,2.22
2018-03-09T00:56:57.703Z,1.60
2018-03-09T00:59:24.193Z,1.90
2018-03-09T01:01:50.807Z,2.03
2018-03-09T01:04:17.247Z,1.83
2018-03-09T01:06:43.729Z,1.50
2018-03-09T01:09:10.282Z,2.20
2018-03-09T01:11:36.816Z,1.37
2018-03-09T01:14:03.320Z,3.25
2018-03-09T01:16:29.792Z,1.40
2018-03-09T01:18:56.248Z,2.22
2018-03-09T01:21:22.839Z,1.65
2018-03-09T01:23:49.313Z,1.40
2018-03-09T01:26:15.828Z,2.10
2018-03-09T01:28:42.279Z,1.70
2018-03-09T01:31:08.752Z,1.33
2018-03-09T01:33:35.940Z,1.27
2018-03-09T01:36:02.509Z,1.50
2018-03-09T01:38:29.069Z,1.70
2018-03-09T01:40:56.343Z,1.50
2018-03-09T01:43:22.900Z,1.50
2018-03-09T01:45:49.371Z,1.98
2018-03-09T01:48:15.896Z,1.70
2018-03-09T01:50:42.370Z,2.22
2018-03-09T01:53:09.686Z,1.70
2018-03-09T01:55:36.147Z,2.25
2018-03-09T01:58:03.369Z,1.50
2018-03-09T02:00:30.033Z,1.55
2018-03-09T02:02:57.293Z,1.85
2018-03-09T02:05:24.490Z,1.40
2018-03-09T02:07:51.015Z,1.92
2018-03-09T02:10:17.520Z,2.85
2018-03-09T02:12:44.012Z,1.70
2018-03-09T02:15:10.684Z,1.60
2018-03-09T02:17:37.884Z,1.90
2018-03-09T02:20:04.371Z,2.12
2018-03-09T02:22:31.612Z,1.50
2018-03-09T02:24:58.853Z,1.85
2018-03-09T02:27:25.315Z,1.80
2018-03-09T02:29:52.488Z,1.98
2018-03-09T02:32:18.962Z,1.90
2018-03-09T02:34:45.416Z,1.77
2018-03-09T02:37:12.068Z,2.05
2018-03-09T02:39:39.292Z,1.92
2018-03-09T02:42:05.788Z,2.83
2018-03-09T02:44:32.401Z,2.35
2018-03-09T02:46:58.870Z,1.85
2018-03-09T02:49:25.419Z,1.70
2018-03-09T02:51:51.897Z,1.90
2018-03-09T02:54:18.393Z,2.42
2018-03-09T02:56:44.814Z,2.45
2018-03-09T02:59:11.353Z,3.10
2018-03-09T03:01:37.899Z,2.60
2018-03-09T03:04:04.700Z,2.20
2018-03-09T03:06:31.195Z,1.77
2018-03-09T03:08:57.686Z,2.00
2018-03-09T03:11:24.143Z,3.55
2018-03-09T03:13:50.634Z,2.37
2018-03-09T03:16:17.130Z,1.80
2018-03-09T03:18:44.358Z,2.08
2018-03-09T03:21:10.817Z,2.35
2018-03-09T03:23:38.065Z,2.20
2018-03-09T03:26:05.478Z,2.10
2018-03-09T03:28:31.934Z,2.65
2018-03-09T03:30:58.537Z,2.10
2018-03-09T03:33:25.051Z,3.40
2018-03-09T03:35:51.493Z,3.78
2018-03-09T03:38:18.241Z,2.80
2018-03-09T03:40:45.039Z,2.35
2018-03-09T03:43:12.245Z,2.60
2018-03-09T03:45:38.869Z,2.15
2018-03-09T03:48:05.320Z,2.70
2018-03-09T03:50:31.849Z,2.95
2018-03-09T03:52:58.347Z,3.33
2018-03-09T03:55:24.827Z,2.37
2018-03-09T03:57:51.368Z,2.62
2018-03-09T04:00:18.644Z,2.30
2018-03-09T04:02:45.193Z,4.30
2018-03-09T04:05:12.449Z,4.15
2018-03-09T04:07:39.681Z,3.80
2018-03-09T04:10:06.176Z,2.45
2018-03-09T04:12:32.718Z,2.87
2018-03-09T04:14:59.207Z,2.60
2018-03-09T04:17:25.721Z,2.35
2018-03-09T04:19:52.243Z,6.68
2018-03-09T04:22:18.718Z,3.47
2018-03-09T04:24:46.003Z,2.50
2018-03-09T04:27:12.562Z,3.25
2018-03-09T04:29:39.103Z,7.65
2018-03-09T04:32:05.618Z,3.12
2018-03-09T04:34:32.249Z,3.50
2018-03-09T04:36:58.679Z,2.70
2018-03-09T04:39:25.252Z,2.92
2018-03-09T04:41:52.013Z,4.43
2018-03-09T04:44:19.324Z,3.60
2018-03-09T04:46:45.825Z,3.08
2018-03-09T04:49:12.381Z,3.58
2018-03-09T04:51:38.866Z,2.85
2018-03-09T04:54:05.350Z,2.95
2018-03-09T04:56:31.810Z,3.80
2018-03-09T04:58:58.294Z,2.90
2018-03-09T05:01:24.760Z,2.75
2018-03-09T05:03:51.364Z,4.85
2018-03-09T05:06:17.786Z,3.00
2018-03-09T05:08:44.379Z,3.12
2018-03-09T05:11:10.803Z,4.60
2018-03-09T05:13:37.424Z,5.30
2018-03-09T05:16:03.902Z,4.15
2018-03-09T05:18:30.362Z,4.45
2018-03-09T05:20:56.819Z,5.00
2018-03-09T05:23:23.329Z,4.68
2018-03-09T05:25:50.615Z,4.97
2018-03-09T05:28:17.118Z,6.32
2018-03-09T05:30:43.635Z,8.23
2018-03-09T05:33:10.923Z,7.87
2018-03-09T05:35:37.427Z,5.22
2018-03-09T05:38:04.643Z,7.45
2018-03-09T05:40:31.184Z,6.40
2018-03-09T05:42:57.666Z,7.12
2018-03-09T05:45:24.280Z,6.80
2018-03-09T05:47:52.204Z,7.60
2018-03-09T05:50:25.727Z,10.23
2018-03-09T05:52:52.219Z,10.23
2018-03-09T05:55:19.764Z,8.52
2018-03-09T05:57:46.311Z,8.45
2018-03-09T06:00:12.796Z,6.40
2018-03-09T06:02:39.294Z,7.20
2018-03-09T06:05:05.784Z,6.30
2018-03-09T06:07:33.028Z,11.05
2018-03-09T06:10:00.217Z,6.78
2018-03-09T06:12:26.771Z,6.82
2018-03-09T06:14:53.388Z,7.30
2018-03-09T06:17:19.880Z,5.70
2018-03-09T06:19:46.379Z,6.25
2018-03-09T06:22:35.267Z,8.80
2018-03-09T06:25:01.743Z,7.57
2018-03-09T06:27:28.351Z,5.70
2018-03-09T06:29:55.581Z,5.90
2018-03-09T06:32:22.107Z,5.97
2018-03-09T06:34:48.570Z,7.30
2018-03-09T06:37:15.859Z,5.32
2018-03-09T06:39:42.407Z,6.82
2018-03-09T06:42:08.838Z,6.62
2018-03-09T06:44:35.372Z,6.70
2018-03-09T06:47:01.859Z,6.43
2018-03-09T06:49:29.122Z,6.12
2018-03-09T06:51:56.359Z,6.10
2018-03-09T06:54:22.927Z,5.72
2018-03-09T06:56:49.458Z,6.90
2018-03-09T06:59:16.004Z,9.20
2018-03-09T07:01:42.485Z,6.78
2018-03-09T07:04:08.981Z,8.68
2018-03-09T07:06:35.531Z,6.22
2018-03-09T07:09:02.743Z,7.43
2018-03-09T07:11:30.046Z,9.15
2018-03-09T07:13:56.659Z,7.30
2018-03-09T07:16:23.808Z,6.82
2018-03-09T07:18:50.275Z,7.43
2018-03-09T07:21:16.793Z,9.45
2018-03-09T07:23:43.260Z,10.15
2018-03-09T07:26:09.908Z,7.55
2018-03-09T07:28:37.127Z,7.90
2018-03-09T07:31:03.643Z,6.15
2018-03-09T07:33:31.261Z,5.05
2018-03-09T07:35:57.842Z,4.30
2018-03-09T07:38:24.442Z,7.00
2018-03-09T07:40:50.967Z,5.25
2018-03-09T07:43:18.215Z,5.40
2018-03-09T07:45:45.546Z,4.87
2018-03-09T07:48:11.987Z,4.00
2018-03-09T07:50:38.507Z,6.90
2018-03-09T07:53:04.968Z,5.70
2018-03-09T07:55:32.224Z,6.00
2018-03-09T07:57:59.403Z,4.50
2018-03-09T08:00:25.914Z,4.67
2018-03-09T08:02:53.154Z,7.77
2018-03-09T08:05:20.459Z,5.70
2018-03-09T08:07:46.987Z,9.63
2018-03-09T08:10:13.527Z,9.00
2018-03-09T08:12:40.004Z,7.30
2018-03-09T08:15:06.545Z,7.30
2018-03-09T08:17:32.994Z,7.00
2018-03-09T08:20:00.207Z,12.03
2018-03-09T08:22:26.716Z,6.10
2018-03-09T08:24:53.197Z,6.47
2018-03-09T08:27:19.736Z,8.30
2018-03-09T08:29:46.181Z,7.47
2018-03-09T08:32:13.424Z,8.90
2018-03-09T08:34:40.686Z,7.27
2018-03-09T08:37:07.944Z,7.90
2018-03-09T08:39:35.276Z,7.20
2018-03-09T08:42:01.805Z,7.67
2018-03-09T08:44:28.331Z,10.33
2018-03-09T08:46:54.897Z,9.00
2018-03-09T08:49:22.134Z,6.33
2018-03-09T08:51:48.575Z,9.20
2018-03-09T08:54:15.805Z,11.70
2018-03-09T08:56:42.398Z,7.80
2018-03-09T08:59:09.561Z,7.80
2018-03-09T09:01:36.178Z,4.77
2018-03-09T09:04:02.625Z,5.07
2018-03-09T09:06:29.151Z,4.80
2018-03-09T09:08:55.619Z,4.47
2018-03-09T09:11:22.080Z,4.87
2018-03-09T09:13:48.599Z,3.93
2018-03-09T09:16:15.092Z,3.80
2018-03-09T09:18:41.635Z,4.17
2018-03-09T09:21:08.146Z,3.93
2018-03-09T09:23:34.856Z,7.47
2018-03-09T09:26:01.255Z,6.53
2018-03-09T09:28:27.703Z,8.43
2018-03-09T09:30:54.204Z,7.80
2018-03-09T09:33:20.796Z,9.20
2018-03-09T09:35:47.219Z,7.50
2018-03-09T09:38:13.748Z,7.77
2018-03-09T09:40:40.214Z,6.37
2018-03-09T09:43:07.474Z,4.83
2018-03-09T09:45:33.975Z,5.47
2018-03-09T09:48:00.456Z,4.50
2018-03-09T09:50:26.899Z,5.00
2018-03-09T09:52:53.458Z,4.80
2018-03-09T09:55:20.136Z,6.60
2018-03-09T09:57:46.703Z,5.70
2018-03-09T10:00:13.230Z,9.83
2018-03-09T10:02:39.698Z,3.83
2018-03-09T10:05:06.144Z,6.30
2018-03-09T10:07:32.671Z,5.50
2018-03-09T10:09:59.078Z,3.60
2018-03-09T10:12:25.598Z,4.20
2018-03-09T10:14:52.067Z,5.23
2018-03-09T10:17:18.615Z,4.70
2018-03-09T10:19:45.103Z,4.23
2018-03-09T10:22:11.671Z,6.47
2018-03-09T10:24:38.145Z,4.10
2018-03-09T10:27:04.693Z,4.77
2018-03-09T10:29:32.066Z,6.13
2018-03-09T10:31:58.592Z,3.63
2018-03-09T10:34:25.301Z,5.40
2018-03-09T10:36:51.736Z,6.43
2018-03-09T10:39:18.997Z,6.43
2018-03-09T10:41:46.209Z,5.23
2018-03-09T10:44:12.716Z,8.60
2018-03-09T10:46:39.197Z,4.67
2018-03-09T10:49:05.716Z,5.23
2018-03-09T10:51:35.060Z,5.53
2018-03-09T10:54:02.382Z,5.23
2018-03-09T10:56:28.858Z,3.53
2018-03-09T10:58:55.369Z,8.13
2018-03-09T11:01:22.591Z,6.20
2018-03-09T11:03:49.104Z,4.70
2018-03-09T11:06:15.587Z,5.10
2018-03-09T11:08:42.890Z,8.80
2018-03-09T11:11:09.452Z,5.70
2018-03-09T11:13:35.992Z,5.50
2018-03-09T11:16:02.843Z,5.70
2018-03-09T11:18:29.500Z,4.00
2018-03-09T11:20:56.729Z,5.20
2018-03-09T11:23:24.049Z,4.80
2018-03-09T11:25:50.717Z,5.57
2018-03-09T11:28:17.283Z,5.40
2018-03-09T11:30:43.864Z,6.03
2018-03-09T11:33:10.464Z,4.37
2018-03-09T11:35:37.800Z,2.77
2018-03-09T11:38:05.118Z,2.93
2018-03-09T11:40:31.660Z,4.83
2018-03-09T11:42:59.081Z,4.50
2018-03-09T11:45:25.604Z,3.50
2018-03-09T11:47:52.299Z,7.83
2018-03-09T11:50:18.836Z,3.20
2018-03-09T11:52:45.304Z,2.97
2018-03-09T11:55:12.643Z,4.20
2018-03-09T11:57:39.847Z,3.50
2018-03-09T12:00:06.368Z,4.37
2018-03-09T12:02:32.947Z,5.23
2018-03-09T12:04:59.405Z,2.20
2018-03-09T12:07:26.663Z,3.27
2018-03-09T12:09:53.894Z,6.03
2018-03-09T12:12:20.461Z,4.23
2018-03-09T12:14:46.953Z,4.07
2018-03-09T12:17:13.479Z,3.43
2018-03-09T12:19:40.120Z,4.87
2018-03-09T12:22:06.583Z,3.00
2018-03-09T12:24:33.836Z,3.27
2018-03-09T12:27:01.051Z,3.30
2018-03-09T12:29:27.558Z,5.33
2018-03-09T12:31:56.190Z,5.23
2018-03-09T12:34:22.714Z,7.37
2018-03-09T12:36:50.019Z,3.77
2018-03-09T12:39:16.554Z,3.07
2018-03-09T12:41:43.098Z,2.70
2018-03-09T12:44:09.612Z,3.60
2018-03-09T12:46:36.319Z,3.67
2018-03-09T12:49:03.587Z,3.03
2018-03-09T12:51:32.293Z,3.50
2018-03-09T12:53:58.884Z,6.10
2018-03-09T12:56:25.395Z,3.43
2018-03-09T12:58:52.624Z,5.77
2018-03-09T13:01:19.271Z,6.67
2018-03-09T13:03:45.723Z,6.87
2018-03-09T13:06:12.281Z,3.30
2018-03-09T13:08:44.841Z,3.80
2018-03-09T13:11:12.171Z,3.60
2018-03-09T13:13:40.519Z,5.13
2018-03-09T13:16:07.732Z,3.37
2018-03-09T13:18:34.219Z,5.07
2018-03-09T13:21:00.681Z,6.27
2018-03-09T13:23:27.121Z,6.70
2018-03-09T13:25:53.611Z,4.03
2018-03-09T13:28:20.937Z,4.50
2018-03-09T13:30:47.431Z,3.40
2018-03-09T13:33:13.886Z,3.77
2018-03-09T13:35:40.322Z,5.93
2018-03-09T13:38:06.844Z,4.80
2018-03-09T13:40:33.354Z,4.07
2018-03-09T13:42:59.817Z,4.53
2018-03-09T13:45:26.336Z,5.10
2018-03-09T13:47:52.782Z,4.30
2018-03-09T13:50:19.474Z,5.07
2018-03-09T13:52:45.907Z,6.00
2018-03-09T13:55:13.121Z,3.60
2018-03-09T13:57:39.877Z,3.00
2018-03-09T14:00:06.660Z,4.90
2018-03-09T14:02:34.758Z,3.90
2018-03-09T14:05:01.246Z,4.43
2018-03-09T14:07:28.246Z,5.10
2018-03-09T14:09:55.224Z,5.60
2018-03-09T14:12:21.772Z,8.50
2018-03-09T14:14:48.989Z,5.93
2018-03-09T14:17:15.931Z,4.37
2018-03-09T14:19:42.599Z,4.60
2018-03-09T14:22:09.203Z,8.03
2018-03-09T14:24:35.815Z,5.90
2018-03-09T14:27:02.348Z,8.13
2018-03-09T14:29:28.844Z,14.13
2018-03-09T14:31:56.088Z,7.67
2018-03-09T14:34:23.664Z,7.50
2018-03-09T14:36:51.503Z,8.97
2018-03-09T14:39:18.072Z,4.37
2018-03-09T14:41:44.510Z,10.53
2018-03-09T14:44:11.863Z,5.20
2018-03-09T14:46:38.400Z,4.57
2018-03-09T14:49:04.944Z,4.83
2018-03-09T14:51:31.483Z,5.13
2018-03-09T14:53:57.991Z,4.80
2018-03-09T14:56:24.727Z,5.87
2018-03-09T14:58:52.077Z,4.80
2018-03-09T15:01:20.051Z,4.90
2018-03-09T15:03:47.303Z,6.40
2018-03-09T15:06:14.693Z,6.10
2018-03-09T15:08:41.251Z,6.70
2018-03-09T15:11:07.897Z,7.23
2018-03-09T15:13:34.408Z,5.90
2018-03-09T15:16:00.994Z,5.87
2018-03-09T15:18:28.247Z,7.33
2018-03-09T15:20:55.544Z,5.93
2018-03-09T15:23:24.102Z,5.80
2018-03-09T15:25:50.789Z,5.60
2018-03-09T15:28:17.364Z,9.17
2018-03-09T15:30:44.562Z,7.50
2018-03-09T15:33:11.033Z,6.30
2018-03-09T15:35:37.509Z,7.40
2018-03-09T15:38:06.106Z,8.00
2018-03-09T15:40:32.601Z,9.13
2018-03-09T15:42:59.248Z,14.33
2018-03-09T15:45:25.758Z,7.80
2018-03-09T15:47:52.456Z,6.80
2018-03-09T15:50:18.945Z,5.33
2018-03-09T15:52:46.739Z,5.93
2018-03-09T15:55:13.339Z,5.97
2018-03-09T15:57:40.716Z,7.70
2018-03-09T16:00:07.363Z,10.77
2018-03-09T16:02:33.859Z,7.43
2018-03-09T16:05:00.569Z,11.03
2018-03-09T16:07:27.040Z,5.57
2018-03-09T16:09:54.398Z,5.47
2018-03-09T16:12:22.110Z,10.00
2018-03-09T16:14:48.644Z,8.70
2018-03-09T16:17:15.160Z,8.23
2018-03-09T16:19:41.631Z,8.63
2018-03-09T16:22:08.098Z,10.93
2018-03-09T16:24:34.659Z,10.43
2018-03-09T16:27:01.310Z,21.53
2018-03-09T16:29:27.812Z,15.00
2018-03-09T16:31:55.109Z,16.20
2018-03-09T16:34:21.606Z,12.07
2018-03-09T16:36:48.353Z,11.67
2018-03-09T16:39:14.910Z,12.80
2018-03-09T16:41:48.372Z,13.00
2018-03-09T16:44:15.716Z,7.77
2018-03-09T16:46:42.950Z,12.67
2018-03-09T16:49:09.568Z,9.33
2018-03-09T16:51:36.197Z,12.83
2018-03-09T16:54:02.782Z,12.83
2018-03-09T16:56:29.366Z,10.30
2018-03-09T16:58:55.850Z,9.20
2018-03-09T17:01:23.087Z,10.33
2018-03-09T17:03:49.922Z,11.07
2018-03-09T17:06:16.450Z,12.10
2018-03-09T17:08:42.958Z,11.37
2018-03-09T17:11:09.481Z,11.67
2018-03-09T17:13:35.971Z,10.60
2018-03-09T17:16:02.737Z,10.33
2018-03-09T17:18:29.236Z,9.90
2018-03-09T17:20:55.737Z,11.10
2018-03-09T17:23:22.436Z,9.87
2018-03-09T17:25:49.624Z,12.90
2018-03-09T17:28:16.150Z,10.77
2018-03-09T17:30:42.794Z,11.70
2018-03-09T17:33:09.667Z,14.93
2018-03-09T17:35:36.177Z,13.57
2018-03-09T17:38:02.847Z,14.23
2018-03-09T17:40:29.296Z,11.67
2018-03-09T17:42:57.140Z,14.80
2018-03-09T17:45:25.485Z,14.53
2018-03-09T17:53:40.307Z,20.00
2018-03-09T17:56:08.966Z,16.83
2018-03-09T17:58:35.565Z,19.43
2018-03-09T18:01:08.539Z,19.13
2018-03-09T18:03:39.859Z,21.90
2018-03-09T18:06:12.582Z,21.10
2018-03-09T18:08:45.528Z,17.43
2018-03-09T18:11:16.495Z,17.43
2018-03-09T18:13:44.085Z,21.80
2018-03-09T18:16:10.539Z,19.63
2018-03-09T18:18:37.046Z,25.90
2018-03-09T18:21:04.414Z,25.67
2018-03-09T18:23:30.920Z,18.03
2018-03-09T18:25:58.206Z,21.20
2018-03-09T18:28:24.792Z,16.10
2018-03-09T18:30:51.264Z,19.77
2018-03-09T18:33:17.901Z,21.77
2018-03-09T18:35:44.494Z,18.23
2018-03-09T18:38:11.067Z,18.53
2018-03-09T18:40:37.806Z,17.30
2018-03-09T18:43:05.439Z,21.07
2018-03-09T18:45:31.958Z,18.40
2018-03-09T18:47:59.222Z,17.60
2018-03-09T18:50:25.835Z,18.23
2018-03-09T18:52:52.358Z,17.87
2018-03-09T18:55:19.000Z,19.60
2018-03-09T18:57:45.530Z,26.50
2018-03-09T19:00:12.093Z,41.53
2018-03-09T19:02:38.599Z,23.47
2018-03-09T19:05:05.251Z,19.57
2018-03-09T19:07:31.873Z,25.20
2018-03-09T19:09:58.338Z,27.13
2018-03-09T19:12:25.062Z,24.20
2018-03-09T19:14:52.426Z,22.77
2018-03-09T19:17:19.024Z,15.83
2018-03-09T19:19:45.828Z,16.97
2018-03-09T19:22:12.385Z,15.73
2018-03-09T19:24:39.756Z,17.10
2018-03-09T19:27:06.271Z,15.70
2018-03-09T19:29:32.812Z,17.53
2018-03-09T19:32:00.102Z,14.33
2018-03-09T19:34:26.684Z,15.30
2018-03-09T19:36:53.336Z,19.63
2018-03-09T19:39:19.956Z,22.30
2018-03-09T19:41:46.610Z,19.77
2018-03-09T19:44:13.235Z,14.00
2018-03-09T19:46:39.780Z,13.37
2018-03-09T19:49:08.158Z,15.87
2018-03-09T19:51:34.749Z,12.20
2018-03-09T19:54:01.275Z,12.37
2018-03-09T19:56:27.866Z,12.67
2018-03-09T19:58:55.087Z,13.33
2018-03-09T20:01:21.897Z,13.70
2018-03-09T20:03:48.364Z,9.83
2018-03-09T20:06:14.994Z,10.20
2018-03-09T20:08:41.552Z,12.87
2018-03-09T20:11:08.906Z,14.20
2018-03-09T20:13:35.761Z,11.97
2018-03-09T20:16:03.068Z,18.53
2018-03-09T20:18:29.658Z,15.87
2018-03-09T20:23:52.601Z,10.90
2018-03-09T20:26:19.941Z,11.50
2018-03-09T20:28:46.599Z,10.80
2018-03-09T20:31:13.851Z,10.03
2018-03-09T20:33:41.233Z,9.87
2018-03-09T20:36:07.756Z,10.07
2018-03-09T20:38:34.492Z,12.20
2018-03-09T20:41:01.942Z,11.53
2018-03-09T20:43:28.503Z,10.17
2018-03-09T20:45:55.198Z,9.67
2018-03-09T20:48:22.580Z,6.50
2018-03-09T20:50:49.117Z,8.07
2018-03-09T20:53:16.739Z,9.90
2018-03-09T20:55:43.474Z,8.53
2018-03-09T20:58:10.024Z,6.00
2018-03-09T21:00:36.592Z,6.17
2018-03-09T21:03:03.186Z,5.80
2018-03-09T21:05:29.878Z,6.33
2018-03-09T21:07:56.384Z,8.50
2018-03-09T21:10:22.917Z,6.73
2018-03-09T21:12:49.653Z,6.20
2018-03-09T21:15:16.616Z,6.77
2018-03-09T21:17:44.002Z,7.27
2018-03-09T21:20:10.487Z,8.60
2018-03-09T21:22:37.050Z,67.30
2018-03-09T21:28:00.552Z,20.97
2018-03-09T21:30:27.454Z,16.27
2018-03-09T21:32:53.981Z,13.43
2018-03-09T21:35:20.529Z,11.63
2018-03-09T21:37:47.957Z,13.93
2018-03-09T21:40:16.930Z,11.20
2018-03-09T21:42:45.110Z,10.00
2018-03-09T21:45:11.771Z,11.40
2018-03-09T21:47:40.341Z,8.57
2018-03-09T21:50:07.043Z,8.33
2018-03-09T21:52:35.479Z,12.87
2018-03-09T21:55:03.571Z,12.03
2018-03-09T21:57:31.363Z,8.13
2018-03-09T21:59:57.928Z,11.30
2018-03-09T22:02:27.933Z,10.43
2018-03-09T22:04:55.964Z,10.63
2018-03-09T22:07:23.191Z,9.63
2018-03-09T22:09:50.649Z,7.90
2018-03-09T22:12:17.202Z,8.23
2018-03-09T22:14:43.708Z,10.20
2018-03-09T22:17:11.638Z,8.93
2018-03-09T22:19:38.615Z,7.90
2018-03-09T22:22:06.053Z,9.20
2018-03-09T22:24:32.629Z,11.20
2018-03-09T22:26:59.418Z,12.10
2018-03-09T22:29:26.002Z,8.97
2018-03-09T22:31:52.580Z,8.40
2018-03-09T22:34:19.821Z,7.20
2018-03-09T22:36:47.379Z,9.43
2018-03-09T22:39:13.961Z,11.03
2018-03-09T22:41:40.753Z,9.10
2018-03-09T22:44:07.981Z,9.47
2018-03-09T22:46:34.625Z,10.83
2018-03-09T22:49:01.624Z,10.10
2018-03-09T22:51:28.077Z,8.70
2018-03-09T22:53:54.738Z,9.70
2018-03-09T22:56:21.260Z,8.33
2018-03-09T22:58:47.881Z,8.20
2018-03-09T23:01:14.285Z,11.90
2018-03-09T23:03:40.880Z,9.80
2018-03-09T23:06:07.360Z,11.33
2018-03-09T23:08:33.886Z,13.30
2018-03-09T23:11:00.450Z,12.57
2018-03-09T23:13:26.907Z,12.40
2018-03-09T23:15:53.410Z,10.50
2018-03-09T23:18:19.914Z,10.50
2018-03-09T23:20:46.389Z,11.13
2018-03-09T23:23:12.845Z,11.17
2018-03-09T23:25:40.175Z,11.60
2018-03-09T23:28:06.648Z,8.93
2018-03-09T23:30:33.222Z,11.27
2018-03-09T23:32:59.712Z,10.50
2018-03-09T23:35:26.238Z,11.77
2018-03-09T23:37:53.515Z,11.27
2018-03-09T23:40:20.041Z,13.62
2018-03-09T23:42:46.555Z,11.17
2018-03-09T23:45:13.063Z,11.40
2018-03-09T23:47:39.560Z,10.27
2018-03-09T23:50:06.752Z,9.47
2018-03-09T23:52:33.290Z,9.43
2018-03-09T23:54:59.735Z,9.63
2018-03-09T23:57:26.340Z,7.67
2018-03-09T23:59:52.790Z,8.03
